sensor_id;sensor_type;location;lat;lon;timestamp;temperature;humidity
68912;SHT31;55953;51.650;-0.522;2022-07-23T00:00:46;16.79;73.76
68912;SHT31;55953;51.650;-0.522;2022-07-23T00:03:14;16.73;74.21
68912;SHT31;55953;51.650;-0.522;2022-07-23T00:05:42;16.64;74.80
68912;SHT31;55953;51.650;-0.522;2022-07-23T00:08:10;16.64;74.86
68912;SHT31;55953;51.650;-0.522;2022-07-23T00:10:41;16.59;74.82
68912;SHT31;55953;51.650;-0.522;2022-07-23T00:13:09;16.60;74.58
68912;SHT31;55953;51.650;-0.522;2022-07-23T00:15:37;16.55;74.68
68912;SHT31;55953;51.650;-0.522;2022-07-23T00:18:05;16.51;75.07
68912;SHT31;55953;51.650;-0.522;2022-07-23T00:20:33;16.49;75.26
68912;SHT31;55953;51.650;-0.522;2022-07-23T00:23:01;16.46;75.54
68912;SHT31;55953;51.650;-0.522;2022-07-23T00:25:29;16.34;75.89
68912;SHT31;55953;51.650;-0.522;2022-07-23T00:27:58;16.31;76.01
68912;SHT31;55953;51.650;-0.522;2022-07-23T00:30:28;16.34;75.75
68912;SHT31;55953;51.650;-0.522;2022-07-23T00:32:59;16.35;75.76
68912;SHT31;55953;51.650;-0.522;2022-07-23T00:35:32;16.34;75.94
68912;SHT31;55953;51.650;-0.522;2022-07-23T00:38:04;16.31;76.18
68912;SHT31;55953;51.650;-0.522;2022-07-23T00:40:33;16.25;76.49
68912;SHT31;55953;51.650;-0.522;2022-07-23T00:43:01;16.14;76.76
68912;SHT31;55953;51.650;-0.522;2022-07-23T00:45:30;16.10;76.94
68912;SHT31;55953;51.650;-0.522;2022-07-23T00:47:59;16.16;76.78
68912;SHT31;55953;51.650;-0.522;2022-07-23T00:50:28;16.16;76.58
68912;SHT31;55953;51.650;-0.522;2022-07-23T00:52:57;16.15;76.72
68912;SHT31;55953;51.650;-0.522;2022-07-23T00:55:25;16.19;76.72
68912;SHT31;55953;51.650;-0.522;2022-07-23T00:57:54;16.28;76.68
68912;SHT31;55953;51.650;-0.522;2022-07-23T01:00:22;16.35;76.64
68912;SHT31;55953;51.650;-0.522;2022-07-23T01:02:50;16.31;77.04
68912;SHT31;55953;51.650;-0.522;2022-07-23T01:05:18;16.32;77.27
68912;SHT31;55953;51.650;-0.522;2022-07-23T01:07:49;16.31;77.36
68912;SHT31;55953;51.650;-0.522;2022-07-23T01:10:23;16.35;77.42
68912;SHT31;55953;51.650;-0.522;2022-07-23T01:13:05;16.33;77.40
68912;SHT31;55953;51.650;-0.522;2022-07-23T01:15:37;16.40;77.32
68912;SHT31;55953;51.650;-0.522;2022-07-23T01:18:06;16.49;77.20
68912;SHT31;55953;51.650;-0.522;2022-07-23T01:20:36;16.63;76.66
68912;SHT31;55953;51.650;-0.522;2022-07-23T01:23:05;16.63;76.63
68912;SHT31;55953;51.650;-0.522;2022-07-23T01:25:33;16.57;76.88
68912;SHT31;55953;51.650;-0.522;2022-07-23T01:28:03;16.58;76.91
68912;SHT31;55953;51.650;-0.522;2022-07-23T01:30:31;16.55;77.08
68912;SHT31;55953;51.650;-0.522;2022-07-23T01:33:01;16.51;77.32
68912;SHT31;55953;51.650;-0.522;2022-07-23T01:35:29;16.39;77.63
68912;SHT31;55953;51.650;-0.522;2022-07-23T01:38:00;16.34;77.35
68912;SHT31;55953;51.650;-0.522;2022-07-23T01:40:28;16.38;76.70
68912;SHT31;55953;51.650;-0.522;2022-07-23T01:42:57;16.34;76.69
68912;SHT31;55953;51.650;-0.522;2022-07-23T01:45:27;16.42;76.47
68912;SHT31;55953;51.650;-0.522;2022-07-23T01:47:55;16.43;76.41
68912;SHT31;55953;51.650;-0.522;2022-07-23T01:50:23;16.46;76.33
68912;SHT31;55953;51.650;-0.522;2022-07-23T01:53:17;16.40;76.58
68912;SHT31;55953;51.650;-0.522;2022-07-23T01:55:45;16.41;76.71
68912;SHT31;55953;51.650;-0.522;2022-07-23T01:58:13;16.44;76.73
68912;SHT31;55953;51.650;-0.522;2022-07-23T02:00:41;16.39;77.14
68912;SHT31;55953;51.650;-0.522;2022-07-23T02:03:09;16.30;77.52
68912;SHT31;55953;51.650;-0.522;2022-07-23T02:05:37;16.29;77.46
68912;SHT31;55953;51.650;-0.522;2022-07-23T02:08:05;16.39;77.21
68912;SHT31;55953;51.650;-0.522;2022-07-23T02:10:34;16.44;77.27
68912;SHT31;55953;51.650;-0.522;2022-07-23T02:13:03;16.44;77.53
68912;SHT31;55953;51.650;-0.522;2022-07-23T02:15:32;16.36;77.96
68912;SHT31;55953;51.650;-0.522;2022-07-23T02:18:00;16.30;78.16
68912;SHT31;55953;51.650;-0.522;2022-07-23T02:20:28;16.27;78.25
68912;SHT31;55953;51.650;-0.522;2022-07-23T02:22:56;16.39;77.71
68912;SHT31;55953;51.650;-0.522;2022-07-23T02:25:23;16.59;77.18
68912;SHT31;55953;51.650;-0.522;2022-07-23T02:27:54;16.68;77.17
68912;SHT31;55953;51.650;-0.522;2022-07-23T02:30:22;16.72;77.42
68912;SHT31;55953;51.650;-0.522;2022-07-23T02:32:49;16.87;77.19
68912;SHT31;55953;51.650;-0.522;2022-07-23T02:35:17;16.92;77.13
68912;SHT31;55953;51.650;-0.522;2022-07-23T02:37:45;16.97;77.19
68912;SHT31;55953;51.650;-0.522;2022-07-23T02:40:16;16.97;77.45
68912;SHT31;55953;51.650;-0.522;2022-07-23T02:42:45;17.05;77.36
68912;SHT31;55953;51.650;-0.522;2022-07-23T02:45:13;17.12;77.22
68912;SHT31;55953;51.650;-0.522;2022-07-23T02:47:41;17.07;77.37
68912;SHT31;55953;51.650;-0.522;2022-07-23T02:50:09;17.09;77.32
68912;SHT31;55953;51.650;-0.522;2022-07-23T02:52:38;17.13;77.30
68912;SHT31;55953;51.650;-0.522;2022-07-23T02:55:07;17.18;77.11
68912;SHT31;55953;51.650;-0.522;2022-07-23T02:57:35;17.25;76.86
68912;SHT31;55953;51.650;-0.522;2022-07-23T03:00:04;17.28;76.87
68912;SHT31;55953;51.650;-0.522;2022-07-23T03:02:34;17.33;76.64
68912;SHT31;55953;51.650;-0.522;2022-07-23T03:05:02;17.37;76.53
68912;SHT31;55953;51.650;-0.522;2022-07-23T03:07:30;17.35;76.59
68912;SHT31;55953;51.650;-0.522;2022-07-23T03:09:58;17.33;76.86
68912;SHT31;55953;51.650;-0.522;2022-07-23T03:12:26;17.33;76.74
68912;SHT31;55953;51.650;-0.522;2022-07-23T03:14:54;17.31;76.82
68912;SHT31;55953;51.650;-0.522;2022-07-23T03:17:22;17.26;76.92
68912;SHT31;55953;51.650;-0.522;2022-07-23T03:19:50;17.27;76.81
68912;SHT31;55953;51.650;-0.522;2022-07-23T03:22:17;17.20;76.72
68912;SHT31;55953;51.650;-0.522;2022-07-23T03:24:45;17.14;76.77
68912;SHT31;55953;51.650;-0.522;2022-07-23T03:27:25;17.09;76.78
68912;SHT31;55953;51.650;-0.522;2022-07-23T03:29:56;17.03;76.91
68912;SHT31;55953;51.650;-0.522;2022-07-23T03:32:26;16.96;77.05
68912;SHT31;55953;51.650;-0.522;2022-07-23T03:34:55;16.87;77.25
68912;SHT31;55953;51.650;-0.522;2022-07-23T03:37:24;16.76;77.44
68912;SHT31;55953;51.650;-0.522;2022-07-23T03:39:52;16.72;77.42
68912;SHT31;55953;51.650;-0.522;2022-07-23T03:42:20;16.65;77.55
68912;SHT31;55953;51.650;-0.522;2022-07-23T03:44:48;16.60;77.64
68912;SHT31;55953;51.650;-0.522;2022-07-23T03:47:16;16.57;77.70
68912;SHT31;55953;51.650;-0.522;2022-07-23T03:49:44;16.49;77.92
68912;SHT31;55953;51.650;-0.522;2022-07-23T03:52:12;16.44;78.08
68912;SHT31;55953;51.650;-0.522;2022-07-23T03:54:40;16.39;78.29
68912;SHT31;55953;51.650;-0.522;2022-07-23T03:57:08;16.34;78.43
68912;SHT31;55953;51.650;-0.522;2022-07-23T03:59:36;16.32;78.35
68912;SHT31;55953;51.650;-0.522;2022-07-23T04:02:04;16.27;78.56
68912;SHT31;55953;51.650;-0.522;2022-07-23T04:04:32;16.21;78.70
68912;SHT31;55953;51.650;-0.522;2022-07-23T04:07:00;16.17;78.82
68912;SHT31;55953;51.650;-0.522;2022-07-23T04:09:29;16.12;78.96
68912;SHT31;55953;51.650;-0.522;2022-07-23T04:11:57;16.09;79.03
68912;SHT31;55953;51.650;-0.522;2022-07-23T04:14:25;16.11;79.07
68912;SHT31;55953;51.650;-0.522;2022-07-23T04:16:53;16.08;79.02
68912;SHT31;55953;51.650;-0.522;2022-07-23T04:19:21;16.03;79.24
68912;SHT31;55953;51.650;-0.522;2022-07-23T04:22:01;16.00;79.36
68912;SHT31;55953;51.650;-0.522;2022-07-23T04:24:29;15.95;79.48
68912;SHT31;55953;51.650;-0.522;2022-07-23T04:26:57;15.95;79.68
68912;SHT31;55953;51.650;-0.522;2022-07-23T04:29:26;15.97;79.67
68912;SHT31;55953;51.650;-0.522;2022-07-23T04:31:53;15.97;79.67
68912;SHT31;55953;51.650;-0.522;2022-07-23T04:34:21;16.00;79.59
68912;SHT31;55953;51.650;-0.522;2022-07-23T04:36:49;16.00;79.58
68912;SHT31;55953;51.650;-0.522;2022-07-23T04:39:17;15.97;79.69
68912;SHT31;55953;51.650;-0.522;2022-07-23T04:41:45;15.92;79.91
68912;SHT31;55953;51.650;-0.522;2022-07-23T04:44:14;15.87;80.23
68912;SHT31;55953;51.650;-0.522;2022-07-23T04:46:42;15.87;80.24
68912;SHT31;55953;51.650;-0.522;2022-07-23T04:49:10;15.85;80.29
68912;SHT31;55953;51.650;-0.522;2022-07-23T04:51:38;15.89;80.29
68912;SHT31;55953;51.650;-0.522;2022-07-23T04:54:06;15.93;80.33
68912;SHT31;55953;51.650;-0.522;2022-07-23T04:56:34;16.00;80.29
68912;SHT31;55953;51.650;-0.522;2022-07-23T04:59:02;16.03;80.22
68912;SHT31;55953;51.650;-0.522;2022-07-23T05:01:31;15.99;80.40
68912;SHT31;55953;51.650;-0.522;2022-07-23T05:03:59;15.96;80.80
68912;SHT31;55953;51.650;-0.522;2022-07-23T05:06:30;15.94;80.98
68912;SHT31;55953;51.650;-0.522;2022-07-23T05:08:58;15.93;81.12
68912;SHT31;55953;51.650;-0.522;2022-07-23T05:11:26;15.91;81.32
68912;SHT31;55953;51.650;-0.522;2022-07-23T05:13:54;15.89;81.56
68912;SHT31;55953;51.650;-0.522;2022-07-23T05:16:22;15.89;81.55
68912;SHT31;55953;51.650;-0.522;2022-07-23T05:18:51;15.89;81.54
68912;SHT31;55953;51.650;-0.522;2022-07-23T05:21:19;15.91;81.53
68912;SHT31;55953;51.650;-0.522;2022-07-23T05:23:47;15.96;81.30
68912;SHT31;55953;51.650;-0.522;2022-07-23T05:26:15;15.98;81.31
68912;SHT31;55953;51.650;-0.522;2022-07-23T05:28:43;15.99;81.38
68912;SHT31;55953;51.650;-0.522;2022-07-23T05:31:17;16.02;81.34
68912;SHT31;55953;51.650;-0.522;2022-07-23T05:33:46;16.02;81.43
68912;SHT31;55953;51.650;-0.522;2022-07-23T05:36:14;16.01;81.33
68912;SHT31;55953;51.650;-0.522;2022-07-23T05:38:56;16.04;81.32
68912;SHT31;55953;51.650;-0.522;2022-07-23T05:41:26;16.04;81.35
68912;SHT31;55953;51.650;-0.522;2022-07-23T05:43:54;16.05;81.20
68912;SHT31;55953;51.650;-0.522;2022-07-23T05:46:22;16.08;81.32
68912;SHT31;55953;51.650;-0.522;2022-07-23T05:48:52;16.09;81.42
68912;SHT31;55953;51.650;-0.522;2022-07-23T05:51:36;16.15;81.37
68912;SHT31;55953;51.650;-0.522;2022-07-23T05:54:04;16.24;81.27
68912;SHT31;55953;51.650;-0.522;2022-07-23T05:56:37;16.33;81.14
68912;SHT31;55953;51.650;-0.522;2022-07-23T05:59:05;16.42;81.06
68912;SHT31;55953;51.650;-0.522;2022-07-23T06:01:33;16.59;80.86
68912;SHT31;55953;51.650;-0.522;2022-07-23T06:04:09;16.83;80.61
68912;SHT31;55953;51.650;-0.522;2022-07-23T06:06:41;16.98;80.09
68912;SHT31;55953;51.650;-0.522;2022-07-23T06:09:10;17.10;79.83
68912;SHT31;55953;51.650;-0.522;2022-07-23T06:11:41;17.20;79.43
68912;SHT31;55953;51.650;-0.522;2022-07-23T06:14:08;17.27;79.21
68912;SHT31;55953;51.650;-0.522;2022-07-23T06:16:48;17.39;79.20
68912;SHT31;55953;51.650;-0.522;2022-07-23T06:19:15;17.45;78.94
68912;SHT31;55953;51.650;-0.522;2022-07-23T06:21:44;17.48;78.69
68912;SHT31;55953;51.650;-0.522;2022-07-23T06:24:15;17.49;78.65
68912;SHT31;55953;51.650;-0.522;2022-07-23T06:26:43;17.49;78.70
68912;SHT31;55953;51.650;-0.522;2022-07-23T06:29:11;17.55;78.55
68912;SHT31;55953;51.650;-0.522;2022-07-23T06:31:39;17.58;78.47
68912;SHT31;55953;51.650;-0.522;2022-07-23T06:34:07;17.61;78.40
68912;SHT31;55953;51.650;-0.522;2022-07-23T06:36:35;17.68;78.19
68912;SHT31;55953;51.650;-0.522;2022-07-23T06:39:05;17.77;78.22
68912;SHT31;55953;51.650;-0.522;2022-07-23T06:41:35;17.85;77.93
68912;SHT31;55953;51.650;-0.522;2022-07-23T06:44:03;17.96;77.60
68912;SHT31;55953;51.650;-0.522;2022-07-23T06:46:32;18.03;77.38
68912;SHT31;55953;51.650;-0.522;2022-07-23T06:49:01;18.10;77.31
68912;SHT31;55953;51.650;-0.522;2022-07-23T06:51:32;18.15;76.96
68912;SHT31;55953;51.650;-0.522;2022-07-23T06:54:01;18.31;76.88
68912;SHT31;55953;51.650;-0.522;2022-07-23T06:56:30;18.41;76.14
68912;SHT31;55953;51.650;-0.522;2022-07-23T06:58:57;18.50;76.00
68912;SHT31;55953;51.650;-0.522;2022-07-23T07:01:26;18.61;75.79
68912;SHT31;55953;51.650;-0.522;2022-07-23T07:03:54;18.73;75.39
68912;SHT31;55953;51.650;-0.522;2022-07-23T07:06:22;18.80;75.22
68912;SHT31;55953;51.650;-0.522;2022-07-23T07:08:51;18.83;74.66
68912;SHT31;55953;51.650;-0.522;2022-07-23T07:11:19;18.82;74.66
68912;SHT31;55953;51.650;-0.522;2022-07-23T07:13:47;18.85;74.65
68912;SHT31;55953;51.650;-0.522;2022-07-23T07:16:15;18.87;74.24
68912;SHT31;55953;51.650;-0.522;2022-07-23T07:18:43;18.80;74.42
68912;SHT31;55953;51.650;-0.522;2022-07-23T07:21:11;18.76;74.21
68912;SHT31;55953;51.650;-0.522;2022-07-23T07:23:39;18.72;74.15
68912;SHT31;55953;51.650;-0.522;2022-07-23T07:26:07;18.71;74.35
68912;SHT31;55953;51.650;-0.522;2022-07-23T07:28:35;18.74;74.21
68912;SHT31;55953;51.650;-0.522;2022-07-23T07:31:03;18.74;74.07
68912;SHT31;55953;51.650;-0.522;2022-07-23T07:33:31;18.77;73.85
68912;SHT31;55953;51.650;-0.522;2022-07-23T07:35:59;18.81;73.85
68912;SHT31;55953;51.650;-0.522;2022-07-23T07:38:28;18.93;73.62
68912;SHT31;55953;51.650;-0.522;2022-07-23T07:40:55;19.11;73.51
68912;SHT31;55953;51.650;-0.522;2022-07-23T07:43:23;19.26;73.32
68912;SHT31;55953;51.650;-0.522;2022-07-23T07:45:52;19.39;72.80
68912;SHT31;55953;51.650;-0.522;2022-07-23T07:48:20;19.45;72.43
68912;SHT31;55953;51.650;-0.522;2022-07-23T07:50:48;19.50;72.40
68912;SHT31;55953;51.650;-0.522;2022-07-23T07:53:15;19.60;72.42
68912;SHT31;55953;51.650;-0.522;2022-07-23T07:55:43;19.71;71.49
68912;SHT31;55953;51.650;-0.522;2022-07-23T07:58:18;19.85;71.58
68912;SHT31;55953;51.650;-0.522;2022-07-23T08:00:45;19.97;71.24
68912;SHT31;55953;51.650;-0.522;2022-07-23T08:03:13;20.10;70.95
68912;SHT31;55953;51.650;-0.522;2022-07-23T08:05:42;20.21;70.92
68912;SHT31;55953;51.650;-0.522;2022-07-23T08:08:10;20.35;70.58
68912;SHT31;55953;51.650;-0.522;2022-07-23T08:10:42;20.55;70.05
68912;SHT31;55953;51.650;-0.522;2022-07-23T08:13:14;20.87;69.43
68912;SHT31;55953;51.650;-0.522;2022-07-23T08:15:43;21.21;68.48
68912;SHT31;55953;51.650;-0.522;2022-07-23T08:18:13;21.42;67.65
68912;SHT31;55953;51.650;-0.522;2022-07-23T08:20:41;21.45;67.26
68912;SHT31;55953;51.650;-0.522;2022-07-23T08:23:09;21.44;67.07
68912;SHT31;55953;51.650;-0.522;2022-07-23T08:25:38;21.32;67.04
68912;SHT31;55953;51.650;-0.522;2022-07-23T08:28:09;21.26;66.88
68912;SHT31;55953;51.650;-0.522;2022-07-23T08:30:41;21.25;66.69
68912;SHT31;55953;51.650;-0.522;2022-07-23T08:33:15;21.18;65.89
68912;SHT31;55953;51.650;-0.522;2022-07-23T08:35:58;21.17;66.26
68912;SHT31;55953;51.650;-0.522;2022-07-23T08:38:27;21.22;65.93
68912;SHT31;55953;51.650;-0.522;2022-07-23T08:40:56;21.28;64.54
68912;SHT31;55953;51.650;-0.522;2022-07-23T08:43:30;21.30;63.98
68912;SHT31;55953;51.650;-0.522;2022-07-23T08:46:02;21.19;63.72
68912;SHT31;55953;51.650;-0.522;2022-07-23T08:48:32;21.20;64.00
68912;SHT31;55953;51.650;-0.522;2022-07-23T08:51:03;21.34;63.83
68912;SHT31;55953;51.650;-0.522;2022-07-23T08:53:34;21.42;63.57
68912;SHT31;55953;51.650;-0.522;2022-07-23T08:56:05;21.61;63.26
68912;SHT31;55953;51.650;-0.522;2022-07-23T08:58:36;21.77;62.58
68912;SHT31;55953;51.650;-0.522;2022-07-23T09:01:04;21.93;62.23
68912;SHT31;55953;51.650;-0.522;2022-07-23T09:03:33;22.00;61.47
68912;SHT31;55953;51.650;-0.522;2022-07-23T09:06:04;21.94;61.04
68912;SHT31;55953;51.650;-0.522;2022-07-23T09:08:39;21.90;61.37
68912;SHT31;55953;51.650;-0.522;2022-07-23T09:11:12;21.88;60.25
68912;SHT31;55953;51.650;-0.522;2022-07-23T09:13:48;21.86;60.18
68912;SHT31;55953;51.650;-0.522;2022-07-23T09:16:31;21.85;59.62
68912;SHT31;55953;51.650;-0.522;2022-07-23T09:19:03;21.87;59.40
68912;SHT31;55953;51.650;-0.522;2022-07-23T09:21:34;21.92;58.76
68912;SHT31;55953;51.650;-0.522;2022-07-23T09:24:06;21.97;58.45
68912;SHT31;55953;51.650;-0.522;2022-07-23T09:26:38;22.07;58.69
68912;SHT31;55953;51.650;-0.522;2022-07-23T09:31:53;22.30;57.10
68912;SHT31;55953;51.650;-0.522;2022-07-23T09:34:27;22.25;56.29
68912;SHT31;55953;51.650;-0.522;2022-07-23T09:39:46;22.32;56.96
68912;SHT31;55953;51.650;-0.522;2022-07-23T09:42:25;22.34;55.75
68912;SHT31;55953;51.650;-0.522;2022-07-23T09:44:54;22.34;55.74
68912;SHT31;55953;51.650;-0.522;2022-07-23T09:47:26;22.41;56.29
68912;SHT31;55953;51.650;-0.522;2022-07-23T09:49:57;22.46;54.66
68912;SHT31;55953;51.650;-0.522;2022-07-23T09:52:37;22.53;54.72
68912;SHT31;55953;51.650;-0.522;2022-07-23T09:55:11;22.57;54.28
68912;SHT31;55953;51.650;-0.522;2022-07-23T09:57:40;22.71;53.32
68912;SHT31;55953;51.650;-0.522;2022-07-23T10:00:10;22.79;52.92
68912;SHT31;55953;51.650;-0.522;2022-07-23T10:02:40;22.85;52.98
68912;SHT31;55953;51.650;-0.522;2022-07-23T10:05:27;22.92;52.49
68912;SHT31;55953;51.650;-0.522;2022-07-23T10:08:16;22.88;52.32
68912;SHT31;55953;51.650;-0.522;2022-07-23T10:10:49;22.83;51.81
68912;SHT31;55953;51.650;-0.522;2022-07-23T10:13:21;22.82;51.74
68912;SHT31;55953;51.650;-0.522;2022-07-23T10:16:07;22.82;52.15
68912;SHT31;55953;51.650;-0.522;2022-07-23T10:18:35;22.88;52.58
68912;SHT31;55953;51.650;-0.522;2022-07-23T10:21:10;23.01;52.55
68912;SHT31;55953;51.650;-0.522;2022-07-23T10:23:50;23.16;52.60
68912;SHT31;55953;51.650;-0.522;2022-07-23T10:32:23;23.90;50.00
68912;SHT31;55953;51.650;-0.522;2022-07-23T10:38:31;24.06;47.21
68912;SHT31;55953;51.650;-0.522;2022-07-23T10:41:30;24.01;47.44
68912;SHT31;55953;51.650;-0.522;2022-07-23T10:44:11;24.17;48.10
68912;SHT31;55953;51.650;-0.522;2022-07-23T10:47:20;24.41;47.64
68912;SHT31;55953;51.650;-0.522;2022-07-23T10:49:41;24.64;47.29
68912;SHT31;55953;51.650;-0.522;2022-07-23T10:57:28;24.38;46.88
68912;SHT31;55953;51.650;-0.522;2022-07-23T11:02:30;24.36;46.44
68912;SHT31;55953;51.650;-0.522;2022-07-23T11:05:00;24.38;46.98
68912;SHT31;55953;51.650;-0.522;2022-07-23T11:07:33;24.47;47.50
68912;SHT31;55953;51.650;-0.522;2022-07-23T11:10:03;24.60;46.60
68912;SHT31;55953;51.650;-0.522;2022-07-23T11:12:32;24.54;44.53
68912;SHT31;55953;51.650;-0.522;2022-07-23T11:15:13;24.50;45.14
68912;SHT31;55953;51.650;-0.522;2022-07-23T11:22:39;24.65;44.28
68912;SHT31;55953;51.650;-0.522;2022-07-23T11:27:50;24.63;43.36
68912;SHT31;55953;51.650;-0.522;2022-07-23T11:32:53;24.69;43.58
68912;SHT31;55953;51.650;-0.522;2022-07-23T11:35:37;24.87;42.73
68912;SHT31;55953;51.650;-0.522;2022-07-23T11:38:14;24.91;41.99
68912;SHT31;55953;51.650;-0.522;2022-07-23T11:40:46;24.85;42.13
68912;SHT31;55953;51.650;-0.522;2022-07-23T11:43:21;24.80;42.13
68912;SHT31;55953;51.650;-0.522;2022-07-23T11:45:56;24.86;41.73
68912;SHT31;55953;51.650;-0.522;2022-07-23T11:48:27;25.01;42.60
68912;SHT31;55953;51.650;-0.522;2022-07-23T11:51:02;25.14;42.31
68912;SHT31;55953;51.650;-0.522;2022-07-23T11:53:32;25.38;42.53
68912;SHT31;55953;51.650;-0.522;2022-07-23T11:56:03;25.52;42.27
68912;SHT31;55953;51.650;-0.522;2022-07-23T11:58:36;25.65;42.49
68912;SHT31;55953;51.650;-0.522;2022-07-23T12:01:06;25.85;42.52
68912;SHT31;55953;51.650;-0.522;2022-07-23T12:03:50;26.02;41.98
68912;SHT31;55953;51.650;-0.522;2022-07-23T12:06:19;26.15;42.79
68912;SHT31;55953;51.650;-0.522;2022-07-23T12:08:47;26.42;42.48
68912;SHT31;55953;51.650;-0.522;2022-07-23T12:11:15;26.70;42.42
68912;SHT31;55953;51.650;-0.522;2022-07-23T12:13:42;26.85;42.35
68912;SHT31;55953;51.650;-0.522;2022-07-23T12:16:10;26.81;42.24
68912;SHT31;55953;51.650;-0.522;2022-07-23T12:18:38;26.67;41.90
68912;SHT31;55953;51.650;-0.522;2022-07-23T12:21:06;26.57;42.07
68912;SHT31;55953;51.650;-0.522;2022-07-23T12:23:35;26.43;41.84
68912;SHT31;55953;51.650;-0.522;2022-07-23T12:26:05;26.44;42.50
68912;SHT31;55953;51.650;-0.522;2022-07-23T12:28:35;26.53;42.11
68912;SHT31;55953;51.650;-0.522;2022-07-23T12:31:05;26.51;42.01
68912;SHT31;55953;51.650;-0.522;2022-07-23T12:33:39;26.70;42.36
68912;SHT31;55953;51.650;-0.522;2022-07-23T12:36:08;26.91;42.33
68912;SHT31;55953;51.650;-0.522;2022-07-23T12:38:42;27.00;41.22
68912;SHT31;55953;51.650;-0.522;2022-07-23T12:41:16;27.04;42.23
68912;SHT31;55953;51.650;-0.522;2022-07-23T12:43:44;27.10;41.95
68912;SHT31;55953;51.650;-0.522;2022-07-23T12:46:17;26.98;42.62
68912;SHT31;55953;51.650;-0.522;2022-07-23T12:48:53;27.07;42.64
68912;SHT31;55953;51.650;-0.522;2022-07-23T12:51:23;27.21;42.98
68912;SHT31;55953;51.650;-0.522;2022-07-23T12:53:56;27.31;42.83
68912;SHT31;55953;51.650;-0.522;2022-07-23T12:56:35;27.36;43.14
68912;SHT31;55953;51.650;-0.522;2022-07-23T12:59:10;27.45;42.50
68912;SHT31;55953;51.650;-0.522;2022-07-23T13:01:53;27.51;42.66
68912;SHT31;55953;51.650;-0.522;2022-07-23T13:04:29;27.58;42.85
68912;SHT31;55953;51.650;-0.522;2022-07-23T13:06:59;27.77;42.44
68912;SHT31;55953;51.650;-0.522;2022-07-23T13:09:32;27.62;41.88
68912;SHT31;55953;51.650;-0.522;2022-07-23T13:12:09;27.30;42.74
68912;SHT31;55953;51.650;-0.522;2022-07-23T13:14:38;27.19;42.97
68912;SHT31;55953;51.650;-0.522;2022-07-23T13:17:06;27.15;43.25
68912;SHT31;55953;51.650;-0.522;2022-07-23T13:19:36;27.08;43.11
68912;SHT31;55953;51.650;-0.522;2022-07-23T13:22:04;27.24;43.22
68912;SHT31;55953;51.650;-0.522;2022-07-23T13:24:36;27.35;43.48
68912;SHT31;55953;51.650;-0.522;2022-07-23T13:27:06;27.36;43.46
68912;SHT31;55953;51.650;-0.522;2022-07-23T13:29:39;27.34;43.39
68912;SHT31;55953;51.650;-0.522;2022-07-23T13:32:08;27.44;43.87
68912;SHT31;55953;51.650;-0.522;2022-07-23T13:34:39;27.41;43.21
68912;SHT31;55953;51.650;-0.522;2022-07-23T13:37:08;27.30;43.33
68912;SHT31;55953;51.650;-0.522;2022-07-23T13:39:36;27.28;43.78
68912;SHT31;55953;51.650;-0.522;2022-07-23T13:42:05;27.32;43.90
68912;SHT31;55953;51.650;-0.522;2022-07-23T13:44:37;27.49;43.91
68912;SHT31;55953;51.650;-0.522;2022-07-23T13:47:05;27.56;43.30
68912;SHT31;55953;51.650;-0.522;2022-07-23T13:49:33;27.57;43.80
68912;SHT31;55953;51.650;-0.522;2022-07-23T13:52:02;27.60;43.56
68912;SHT31;55953;51.650;-0.522;2022-07-23T13:54:34;27.57;43.63
68912;SHT31;55953;51.650;-0.522;2022-07-23T13:57:03;27.47;43.52
68912;SHT31;55953;51.650;-0.522;2022-07-23T13:59:32;27.32;43.87
68912;SHT31;55953;51.650;-0.522;2022-07-23T14:02:00;27.15;44.33
68912;SHT31;55953;51.650;-0.522;2022-07-23T14:04:51;27.04;44.35
68912;SHT31;55953;51.650;-0.522;2022-07-23T14:07:20;26.83;44.87
68912;SHT31;55953;51.650;-0.522;2022-07-23T14:09:48;26.72;45.07
68912;SHT31;55953;51.650;-0.522;2022-07-23T14:12:16;26.65;45.27
68912;SHT31;55953;51.650;-0.522;2022-07-23T14:14:44;26.53;45.54
68912;SHT31;55953;51.650;-0.522;2022-07-23T14:17:12;26.44;46.00
68912;SHT31;55953;51.650;-0.522;2022-07-23T14:19:42;26.43;46.57
68912;SHT31;55953;51.650;-0.522;2022-07-23T14:22:10;26.43;46.12
68912;SHT31;55953;51.650;-0.522;2022-07-23T14:24:39;26.51;46.70
68912;SHT31;55953;51.650;-0.522;2022-07-23T14:27:07;26.58;46.46
68912;SHT31;55953;51.650;-0.522;2022-07-23T14:29:35;26.63;46.27
68912;SHT31;55953;51.650;-0.522;2022-07-23T14:32:04;26.60;46.47
68912;SHT31;55953;51.650;-0.522;2022-07-23T14:34:33;26.49;46.46
68912;SHT31;55953;51.650;-0.522;2022-07-23T14:37:04;26.34;46.95
68912;SHT31;55953;51.650;-0.522;2022-07-23T14:39:32;26.28;47.37
68912;SHT31;55953;51.650;-0.522;2022-07-23T14:42:00;26.30;47.09
68912;SHT31;55953;51.650;-0.522;2022-07-23T14:44:28;26.42;46.74
68912;SHT31;55953;51.650;-0.522;2022-07-23T14:46:56;26.60;46.75
68912;SHT31;55953;51.650;-0.522;2022-07-23T14:49:25;26.83;46.47
68912;SHT31;55953;51.650;-0.522;2022-07-23T14:51:54;26.96;46.49
68912;SHT31;55953;51.650;-0.522;2022-07-23T14:54:23;26.92;46.32
68912;SHT31;55953;51.650;-0.522;2022-07-23T14:56:53;26.76;46.61
68912;SHT31;55953;51.650;-0.522;2022-07-23T14:59:23;26.47;46.82
68912;SHT31;55953;51.650;-0.522;2022-07-23T15:01:52;26.23;47.39
68912;SHT31;55953;51.650;-0.522;2022-07-23T15:04:21;26.15;47.68
68912;SHT31;55953;51.650;-0.522;2022-07-23T15:07:05;26.26;47.49
68912;SHT31;55953;51.650;-0.522;2022-07-23T15:09:33;26.40;47.44
68912;SHT31;55953;51.650;-0.522;2022-07-23T15:12:03;26.45;47.36
68912;SHT31;55953;51.650;-0.522;2022-07-23T15:14:34;26.53;47.21
68912;SHT31;55953;51.650;-0.522;2022-07-23T15:17:02;26.66;47.31
68912;SHT31;55953;51.650;-0.522;2022-07-23T15:19:30;26.72;46.74
68912;SHT31;55953;51.650;-0.522;2022-07-23T15:21:58;26.59;46.73
68912;SHT31;55953;51.650;-0.522;2022-07-23T15:24:28;26.45;46.71
68912;SHT31;55953;51.650;-0.522;2022-07-23T15:26:56;26.35;47.05
68912;SHT31;55953;51.650;-0.522;2022-07-23T15:29:24;26.29;47.12
68912;SHT31;55953;51.650;-0.522;2022-07-23T15:31:52;26.22;47.23
68912;SHT31;55953;51.650;-0.522;2022-07-23T15:34:25;26.20;47.33
68912;SHT31;55953;51.650;-0.522;2022-07-23T15:36:54;26.17;47.67
68912;SHT31;55953;51.650;-0.522;2022-07-23T15:39:22;26.18;47.86
68912;SHT31;55953;51.650;-0.522;2022-07-23T15:41:51;26.23;48.02
68912;SHT31;55953;51.650;-0.522;2022-07-23T15:44:19;26.30;47.66
68912;SHT31;55953;51.650;-0.522;2022-07-23T15:46:56;26.24;47.83
68912;SHT31;55953;51.650;-0.522;2022-07-23T15:49:26;26.11;48.01
68912;SHT31;55953;51.650;-0.522;2022-07-23T15:51:55;25.99;48.62
68912;SHT31;55953;51.650;-0.522;2022-07-23T15:54:24;26.02;48.88
68912;SHT31;55953;51.650;-0.522;2022-07-23T15:56:52;26.07;49.23
68912;SHT31;55953;51.650;-0.522;2022-07-23T15:59:22;26.04;49.35
68912;SHT31;55953;51.650;-0.522;2022-07-23T16:01:56;25.97;49.51
68912;SHT31;55953;51.650;-0.522;2022-07-23T16:04:25;25.91;49.55
68912;SHT31;55953;51.650;-0.522;2022-07-23T16:06:53;25.91;49.40